This is the latest recevied weather packets stored in our database for station/object KK7MLS-13. If no packets are shown the sender has not sent any weather packets the latest 10 day(s).
| Time | Temp. | Humidity | Pressure | Rain* | Wind** | Luminosity | Snow |
|---|---|---|---|---|---|---|---|
| 1777479224 | 12.78° C | 62% | 1024.9 hPa | 0 mm | - | 388 W/m² | - |
| 1777478921 | 12.22° C | 66% | 1025 hPa | 0 mm | - | 376 W/m² | - |
| 1777478617 | 11.67° C | 66% | 1024.9 hPa | 0 mm | - | 363 W/m² | - |
| 1777478315 | 12.78° C | 66% | 1024.7 hPa | 0 mm | - | 352 W/m² | - |
| 1777478012 | 12.78° C | 63% | 1025 hPa | 0 mm | - | 330 W/m² | - |
| 1777477706 | 12.22° C | 66% | 1024.8 hPa | 0 mm | - | 320 W/m² | - |
| 1777477404 | 12.22° C | 67% | 1025.1 hPa | 0 mm | - | 303 W/m² | - |
| 1777477100 | 12.22° C | 68% | 1024.9 hPa | 0 mm | - | 287 W/m² | - |
| 1777476798 | 11.67° C | 68% | 1025.1 hPa | 0 mm | - | 271 W/m² | - |
| 1777476494 | 11.11° C | 75% | 1025.2 hPa | 0 mm | - | 255 W/m² | - |
| 1777476191 | 11.67° C | 72% | 1025.1 hPa | 0 mm | - | 241 W/m² | - |
| 1777475886 | 10.56° C | 75% | 1025.3 hPa | 0 mm | - | 207 W/m² | - |
| 1777475583 | 10° C | 80% | 1025.2 hPa | 0 mm | - | 139 W/m² | - |
| 1777475279 | 8.89° C | 85% | 1025.2 hPa | 0 mm | - | 123 W/m² | - |
| 1777474974 | 7.78° C | 93% | 1025.1 hPa | 0 mm | - | 94 W/m² | - |
| 1777474670 | 6.67° C | 95% | 1025.2 hPa | 0 mm | - | 89 W/m² | - |
| 1777474368 | 5.56° C | 95% | 1024.9 hPa | 0 mm | - | 83 W/m² | - |
| 1777474063 | 5.56° C | 95% | 1025.1 hPa | 0 mm | - | 28 W/m² | - |
| 1777473762 | 5° C | 94% | 1025.1 hPa | 0 mm | - | 30 W/m² | - |
| 1777473458 | 5° C | 95% | 1025.1 hPa | 0 mm | - | 26 W/m² | - |
| 1777473154 | 5° C | 94% | 1025.1 hPa | 0 mm | - | 24 W/m² | - |
| 1777472851 | 5° C | 94% | 1025.3 hPa | 0 mm | - | 23 W/m² | - |
| 1777472547 | 5° C | 94% | 1025.1 hPa | 0 mm | - | 22 W/m² | - |
| 1777472244 | 5° C | 94% | 1025.1 hPa | 0 mm | - | 22 W/m² | - |
| 1777471940 | 5° C | 94% | 1025.2 hPa | 0 mm | - | 20 W/m² | - |
* Rain latest hour (hover to see other rain measurements)
** Current wind speed in m/s (hover to see current wind gust speed)